sensor_id;sensor_type;location;lat;lon;timestamp;P1;durP1;ratioP1;P2;durP2;ratioP2
8183;SDS011;4133;48.752;9.088;2024-03-22T00:00:31;3.97;;;2.67;;
8183;SDS011;4133;48.752;9.088;2024-03-22T00:02:57;3.43;;;2.63;;
8183;SDS011;4133;48.752;9.088;2024-03-22T00:05:23;3.13;;;2.53;;
8183;SDS011;4133;48.752;9.088;2024-03-22T00:07:49;2.67;;;2.47;;
8183;SDS011;4133;48.752;9.088;2024-03-22T00:10:15;3.30;;;2.73;;
8183;SDS011;4133;48.752;9.088;2024-03-22T00:12:41;3.00;;;2.57;;
8183;SDS011;4133;48.752;9.088;2024-03-22T00:15:07;4.40;;;2.40;;
8183;SDS011;4133;48.752;9.088;2024-03-22T00:17:33;6.40;;;3.17;;
8183;SDS011;4133;48.752;9.088;2024-03-22T00:20:00;5.63;;;3.10;;
8183;SDS011;4133;48.752;9.088;2024-03-22T00:22:26;3.27;;;2.97;;
8183;SDS011;4133;48.752;9.088;2024-03-22T00:24:52;4.50;;;2.87;;
8183;SDS011;4133;48.752;9.088;2024-03-22T00:27:18;4.20;;;3.50;;
8183;SDS011;4133;48.752;9.088;2024-03-22T00:29:44;3.60;;;2.50;;
8183;SDS011;4133;48.752;9.088;2024-03-22T00:32:10;4.30;;;3.00;;
8183;SDS011;4133;48.752;9.088;2024-03-22T00:34:36;3.87;;;2.67;;
8183;SDS011;4133;48.752;9.088;2024-03-22T00:37:02;3.20;;;2.43;;
8183;SDS011;4133;48.752;9.088;2024-03-22T00:39:28;3.00;;;2.63;;
8183;SDS011;4133;48.752;9.088;2024-03-22T00:41:54;3.97;;;2.43;;
8183;SDS011;4133;48.752;9.088;2024-03-22T00:44:20;2.70;;;2.47;;
8183;SDS011;4133;48.752;9.088;2024-03-22T00:46:46;4.57;;;2.40;;
8183;SDS011;4133;48.752;9.088;2024-03-22T00:49:12;3.30;;;2.67;;
8183;SDS011;4133;48.752;9.088;2024-03-22T00:51:38;2.73;;;2.37;;
8183;SDS011;4133;48.752;9.088;2024-03-22T00:54:04;2.47;;;2.27;;
8183;SDS011;4133;48.752;9.088;2024-03-22T00:56:30;2.50;;;2.30;;
8183;SDS011;4133;48.752;9.088;2024-03-22T00:58:56;4.37;;;2.90;;
8183;SDS011;4133;48.752;9.088;2024-03-22T01:01:22;3.07;;;2.70;;
8183;SDS011;4133;48.752;9.088;2024-03-22T01:03:48;2.63;;;2.43;;
8183;SDS011;4133;48.752;9.088;2024-03-22T01:06:14;3.97;;;3.03;;
8183;SDS011;4133;48.752;9.088;2024-03-22T01:08:40;2.83;;;2.20;;
8183;SDS011;4133;48.752;9.088;2024-03-22T01:11:06;4.87;;;2.60;;
8183;SDS011;4133;48.752;9.088;2024-03-22T01:13:32;8.20;;;2.90;;
8183;SDS011;4133;48.752;9.088;2024-03-22T01:15:58;4.63;;;2.87;;
8183;SDS011;4133;48.752;9.088;2024-03-22T01:18:24;5.23;;;3.17;;
8183;SDS011;4133;48.752;9.088;2024-03-22T01:20:50;3.60;;;2.60;;
8183;SDS011;4133;48.752;9.088;2024-03-22T01:23:16;5.17;;;3.10;;
8183;SDS011;4133;48.752;9.088;2024-03-22T01:25:44;4.43;;;2.77;;
8183;SDS011;4133;48.752;9.088;2024-03-22T01:28:10;3.63;;;3.00;;
8183;SDS011;4133;48.752;9.088;2024-03-22T01:30:40;11.33;;;2.40;;
8183;SDS011;4133;48.752;9.088;2024-03-22T01:33:06;5.43;;;2.63;;
8183;SDS011;4133;48.752;9.088;2024-03-22T01:35:32;2.77;;;2.57;;
8183;SDS011;4133;48.752;9.088;2024-03-22T01:37:58;3.10;;;2.50;;
8183;SDS011;4133;48.752;9.088;2024-03-22T01:40:24;6.50;;;3.27;;
8183;SDS011;4133;48.752;9.088;2024-03-22T01:42:52;3.13;;;2.83;;
8183;SDS011;4133;48.752;9.088;2024-03-22T01:45:18;3.93;;;3.10;;
8183;SDS011;4133;48.752;9.088;2024-03-22T01:47:45;5.10;;;3.13;;
8183;SDS011;4133;48.752;9.088;2024-03-22T01:50:11;3.93;;;2.97;;
8183;SDS011;4133;48.752;9.088;2024-03-22T01:52:37;5.53;;;3.40;;
8183;SDS011;4133;48.752;9.088;2024-03-22T01:55:03;5.03;;;3.90;;
8183;SDS011;4133;48.752;9.088;2024-03-22T01:57:31;5.20;;;3.80;;
8183;SDS011;4133;48.752;9.088;2024-03-22T01:59:57;4.10;;;3.17;;
8183;SDS011;4133;48.752;9.088;2024-03-22T02:02:24;5.03;;;3.57;;
8183;SDS011;4133;48.752;9.088;2024-03-22T02:04:51;5.20;;;3.63;;
8183;SDS011;4133;48.752;9.088;2024-03-22T02:07:17;4.67;;;3.20;;
8183;SDS011;4133;48.752;9.088;2024-03-22T02:09:43;4.40;;;2.90;;
8183;SDS011;4133;48.752;9.088;2024-03-22T02:12:09;4.60;;;2.60;;
8183;SDS011;4133;48.752;9.088;2024-03-22T02:14:35;4.67;;;2.87;;
8183;SDS011;4133;48.752;9.088;2024-03-22T02:17:01;3.50;;;2.17;;
8183;SDS011;4133;48.752;9.088;2024-03-22T02:19:27;4.13;;;2.63;;
8183;SDS011;4133;48.752;9.088;2024-03-22T02:21:53;5.97;;;2.47;;
8183;SDS011;4133;48.752;9.088;2024-03-22T02:24:19;3.37;;;2.53;;
8183;SDS011;4133;48.752;9.088;2024-03-22T02:26:44;3.77;;;2.47;;
8183;SDS011;4133;48.752;9.088;2024-03-22T02:29:10;4.90;;;3.23;;
8183;SDS011;4133;48.752;9.088;2024-03-22T02:31:36;2.97;;;2.37;;
8183;SDS011;4133;48.752;9.088;2024-03-22T02:34:02;2.97;;;2.70;;
8183;SDS011;4133;48.752;9.088;2024-03-22T02:36:28;3.63;;;2.50;;
8183;SDS011;4133;48.752;9.088;2024-03-22T02:38:54;3.23;;;2.60;;
8183;SDS011;4133;48.752;9.088;2024-03-22T02:41:21;3.13;;;2.70;;
8183;SDS011;4133;48.752;9.088;2024-03-22T02:43:47;3.07;;;2.47;;
8183;SDS011;4133;48.752;9.088;2024-03-22T02:46:13;3.70;;;2.60;;
8183;SDS011;4133;48.752;9.088;2024-03-22T02:48:39;2.60;;;2.40;;
8183;SDS011;4133;48.752;9.088;2024-03-22T02:51:05;3.33;;;2.30;;
8183;SDS011;4133;48.752;9.088;2024-03-22T02:53:31;3.27;;;2.47;;
8183;SDS011;4133;48.752;9.088;2024-03-22T02:55:59;4.10;;;2.77;;
8183;SDS011;4133;48.752;9.088;2024-03-22T02:58:25;4.13;;;2.57;;
8183;SDS011;4133;48.752;9.088;2024-03-22T03:00:51;2.80;;;2.43;;
8183;SDS011;4133;48.752;9.088;2024-03-22T03:03:17;8.47;;;2.50;;
8183;SDS011;4133;48.752;9.088;2024-03-22T03:05:43;2.53;;;2.27;;
8183;SDS011;4133;48.752;9.088;2024-03-22T03:08:09;2.37;;;2.17;;
8183;SDS011;4133;48.752;9.088;2024-03-22T03:10:35;4.13;;;2.70;;
8183;SDS011;4133;48.752;9.088;2024-03-22T03:13:01;2.40;;;2.00;;
8183;SDS011;4133;48.752;9.088;2024-03-22T03:15:27;5.33;;;2.10;;
8183;SDS011;4133;48.752;9.088;2024-03-22T03:17:53;2.90;;;2.20;;
8183;SDS011;4133;48.752;9.088;2024-03-22T03:20:19;2.87;;;2.17;;
8183;SDS011;4133;48.752;9.088;2024-03-22T03:22:45;4.60;;;2.20;;
8183;SDS011;4133;48.752;9.088;2024-03-22T03:25:11;4.37;;;2.60;;
8183;SDS011;4133;48.752;9.088;2024-03-22T03:27:37;3.23;;;2.33;;
8183;SDS011;4133;48.752;9.088;2024-03-22T03:30:03;2.53;;;2.07;;
8183;SDS011;4133;48.752;9.088;2024-03-22T03:32:30;2.93;;;2.43;;
8183;SDS011;4133;48.752;9.088;2024-03-22T03:34:55;2.67;;;2.40;;
8183;SDS011;4133;48.752;9.088;2024-03-22T03:37:21;2.30;;;2.10;;
8183;SDS011;4133;48.752;9.088;2024-03-22T03:39:47;3.20;;;2.80;;
8183;SDS011;4133;48.752;9.088;2024-03-22T03:42:13;3.13;;;2.33;;
8183;SDS011;4133;48.752;9.088;2024-03-22T03:44:39;2.80;;;2.30;;
8183;SDS011;4133;48.752;9.088;2024-03-22T03:47:06;3.93;;;2.60;;
8183;SDS011;4133;48.752;9.088;2024-03-22T03:49:32;3.27;;;2.57;;
8183;SDS011;4133;48.752;9.088;2024-03-22T03:51:58;3.10;;;2.43;;
8183;SDS011;4133;48.752;9.088;2024-03-22T03:54:24;3.20;;;2.60;;
8183;SDS011;4133;48.752;9.088;2024-03-22T03:56:50;4.77;;;3.13;;
8183;SDS011;4133;48.752;9.088;2024-03-22T03:59:16;5.70;;;2.70;;
8183;SDS011;4133;48.752;9.088;2024-03-22T04:01:42;3.33;;;2.73;;
8183;SDS011;4133;48.752;9.088;2024-03-22T04:04:08;3.57;;;2.87;;
8183;SDS011;4133;48.752;9.088;2024-03-22T04:06:34;4.63;;;3.30;;
8183;SDS011;4133;48.752;9.088;2024-03-22T04:09:00;3.93;;;3.33;;
8183;SDS011;4133;48.752;9.088;2024-03-22T04:11:27;4.17;;;3.00;;
8183;SDS011;4133;48.752;9.088;2024-03-22T04:13:53;3.90;;;3.13;;
8183;SDS011;4133;48.752;9.088;2024-03-22T04:16:19;5.30;;;3.80;;
8183;SDS011;4133;48.752;9.088;2024-03-22T04:18:45;3.80;;;3.17;;
8183;SDS011;4133;48.752;9.088;2024-03-22T04:21:11;5.37;;;3.73;;
8183;SDS011;4133;48.752;9.088;2024-03-22T04:23:37;5.00;;;3.37;;
8183;SDS011;4133;48.752;9.088;2024-03-22T04:26:03;4.77;;;3.73;;
8183;SDS011;4133;48.752;9.088;2024-03-22T04:28:30;6.33;;;3.50;;
8183;SDS011;4133;48.752;9.088;2024-03-22T04:31:06;4.57;;;2.93;;
8183;SDS011;4133;48.752;9.088;2024-03-22T04:33:36;3.83;;;2.90;;
8183;SDS011;4133;48.752;9.088;2024-03-22T04:36:03;4.77;;;3.20;;
8183;SDS011;4133;48.752;9.088;2024-03-22T04:38:29;4.53;;;3.30;;
8183;SDS011;4133;48.752;9.088;2024-03-22T04:40:55;4.57;;;3.33;;
8183;SDS011;4133;48.752;9.088;2024-03-22T04:43:22;5.47;;;3.43;;
8183;SDS011;4133;48.752;9.088;2024-03-22T04:45:48;5.80;;;3.40;;
8183;SDS011;4133;48.752;9.088;2024-03-22T04:48:16;4.47;;;3.30;;
8183;SDS011;4133;48.752;9.088;2024-03-22T04:50:42;4.77;;;3.50;;
8183;SDS011;4133;48.752;9.088;2024-03-22T04:53:08;5.47;;;3.77;;
8183;SDS011;4133;48.752;9.088;2024-03-22T04:55:34;2.90;;;2.60;;
8183;SDS011;4133;48.752;9.088;2024-03-22T04:58:00;4.43;;;2.90;;
8183;SDS011;4133;48.752;9.088;2024-03-22T05:00:27;4.80;;;3.03;;
8183;SDS011;4133;48.752;9.088;2024-03-22T05:02:53;4.23;;;2.83;;
8183;SDS011;4133;48.752;9.088;2024-03-22T05:05:20;3.87;;;3.20;;
8183;SDS011;4133;48.752;9.088;2024-03-22T05:07:46;4.40;;;3.03;;
8183;SDS011;4133;48.752;9.088;2024-03-22T05:10:12;5.17;;;3.10;;
8183;SDS011;4133;48.752;9.088;2024-03-22T05:12:38;3.97;;;2.97;;
8183;SDS011;4133;48.752;9.088;2024-03-22T05:15:05;3.37;;;3.00;;
8183;SDS011;4133;48.752;9.088;2024-03-22T05:17:31;2.70;;;2.50;;
8183;SDS011;4133;48.752;9.088;2024-03-22T05:19:58;4.03;;;2.70;;
8183;SDS011;4133;48.752;9.088;2024-03-22T05:22:24;3.30;;;2.83;;
8183;SDS011;4133;48.752;9.088;2024-03-22T05:24:50;3.20;;;2.57;;
8183;SDS011;4133;48.752;9.088;2024-03-22T05:27:17;2.83;;;2.60;;
8183;SDS011;4133;48.752;9.088;2024-03-22T05:29:43;2.40;;;2.20;;
8183;SDS011;4133;48.752;9.088;2024-03-22T05:32:09;3.67;;;2.90;;
8183;SDS011;4133;48.752;9.088;2024-03-22T05:34:35;3.90;;;2.23;;
8183;SDS011;4133;48.752;9.088;2024-03-22T05:37:02;3.20;;;2.30;;
8183;SDS011;4133;48.752;9.088;2024-03-22T05:39:28;3.23;;;2.50;;
8183;SDS011;4133;48.752;9.088;2024-03-22T05:41:54;4.00;;;2.70;;
8183;SDS011;4133;48.752;9.088;2024-03-22T05:44:21;4.00;;;2.50;;
8183;SDS011;4133;48.752;9.088;2024-03-22T05:46:47;2.87;;;2.57;;
8183;SDS011;4133;48.752;9.088;2024-03-22T05:49:13;4.17;;;2.77;;
8183;SDS011;4133;48.752;9.088;2024-03-22T05:51:39;3.70;;;2.70;;
8183;SDS011;4133;48.752;9.088;2024-03-22T05:54:05;5.57;;;3.27;;
8183;SDS011;4133;48.752;9.088;2024-03-22T05:56:32;2.63;;;2.37;;
8183;SDS011;4133;48.752;9.088;2024-03-22T05:58:58;3.40;;;2.63;;
8183;SDS011;4133;48.752;9.088;2024-03-22T06:01:24;4.17;;;3.27;;
8183;SDS011;4133;48.752;9.088;2024-03-22T06:03:50;4.70;;;2.83;;
8183;SDS011;4133;48.752;9.088;2024-03-22T06:06:16;4.43;;;2.50;;
8183;SDS011;4133;48.752;9.088;2024-03-22T06:08:42;3.03;;;2.73;;
8183;SDS011;4133;48.752;9.088;2024-03-22T06:11:10;3.57;;;2.50;;
8183;SDS011;4133;48.752;9.088;2024-03-22T06:13:36;3.10;;;2.67;;
8183;SDS011;4133;48.752;9.088;2024-03-22T06:16:02;4.07;;;2.87;;
8183;SDS011;4133;48.752;9.088;2024-03-22T06:18:28;2.40;;;2.20;;
8183;SDS011;4133;48.752;9.088;2024-03-22T06:20:54;3.73;;;2.63;;
8183;SDS011;4133;48.752;9.088;2024-03-22T06:23:21;3.13;;;2.60;;
8183;SDS011;4133;48.752;9.088;2024-03-22T06:25:53;3.13;;;2.40;;
8183;SDS011;4133;48.752;9.088;2024-03-22T06:28:19;3.90;;;2.97;;
8183;SDS011;4133;48.752;9.088;2024-03-22T06:30:45;5.30;;;3.10;;
8183;SDS011;4133;48.752;9.088;2024-03-22T06:33:11;3.07;;;2.77;;
8183;SDS011;4133;48.752;9.088;2024-03-22T06:35:37;3.60;;;2.90;;
8183;SDS011;4133;48.752;9.088;2024-03-22T06:38:03;3.37;;;2.70;;
8183;SDS011;4133;48.752;9.088;2024-03-22T06:40:29;5.53;;;3.00;;
8183;SDS011;4133;48.752;9.088;2024-03-22T06:42:55;4.10;;;3.50;;
8183;SDS011;4133;48.752;9.088;2024-03-22T06:45:21;5.40;;;3.47;;
8183;SDS011;4133;48.752;9.088;2024-03-22T06:47:47;3.80;;;3.23;;
8183;SDS011;4133;48.752;9.088;2024-03-22T06:50:14;4.90;;;2.90;;
8183;SDS011;4133;48.752;9.088;2024-03-22T06:52:42;3.13;;;2.73;;
8183;SDS011;4133;48.752;9.088;2024-03-22T06:55:08;3.57;;;2.90;;
8183;SDS011;4133;48.752;9.088;2024-03-22T06:57:34;3.43;;;2.83;;
8183;SDS011;4133;48.752;9.088;2024-03-22T07:00:00;3.33;;;2.90;;
8183;SDS011;4133;48.752;9.088;2024-03-22T07:02:27;2.57;;;2.37;;
8183;SDS011;4133;48.752;9.088;2024-03-22T07:04:53;4.33;;;2.80;;
8183;SDS011;4133;48.752;9.088;2024-03-22T07:07:19;3.23;;;2.63;;
8183;SDS011;4133;48.752;9.088;2024-03-22T07:09:45;3.80;;;3.03;;
8183;SDS011;4133;48.752;9.088;2024-03-22T07:12:12;3.57;;;2.73;;
8183;SDS011;4133;48.752;9.088;2024-03-22T07:14:38;3.43;;;3.13;;
8183;SDS011;4133;48.752;9.088;2024-03-22T07:17:04;3.13;;;2.73;;
8183;SDS011;4133;48.752;9.088;2024-03-22T07:19:31;2.90;;;2.60;;
8183;SDS011;4133;48.752;9.088;2024-03-22T07:21:59;3.53;;;2.67;;
8183;SDS011;4133;48.752;9.088;2024-03-22T07:24:25;5.03;;;2.70;;
8183;SDS011;4133;48.752;9.088;2024-03-22T07:26:51;4.90;;;2.70;;
8183;SDS011;4133;48.752;9.088;2024-03-22T07:29:17;5.73;;;2.67;;
8183;SDS011;4133;48.752;9.088;2024-03-22T07:31:44;3.80;;;2.90;;
8183;SDS011;4133;48.752;9.088;2024-03-22T07:34:10;4.20;;;2.83;;
8183;SDS011;4133;48.752;9.088;2024-03-22T07:36:39;3.57;;;2.70;;
8183;SDS011;4133;48.752;9.088;2024-03-22T07:39:05;3.73;;;2.70;;
8183;SDS011;4133;48.752;9.088;2024-03-22T07:41:32;3.33;;;2.80;;
8183;SDS011;4133;48.752;9.088;2024-03-22T07:43:58;3.97;;;3.27;;
8183;SDS011;4133;48.752;9.088;2024-03-22T07:46:25;4.77;;;3.00;;
8183;SDS011;4133;48.752;9.088;2024-03-22T07:48:51;3.87;;;3.40;;
8183;SDS011;4133;48.752;9.088;2024-03-22T07:51:17;4.30;;;2.83;;
8183;SDS011;4133;48.752;9.088;2024-03-22T07:53:43;4.70;;;3.00;;
8183;SDS011;4133;48.752;9.088;2024-03-22T07:56:09;4.40;;;3.20;;
8183;SDS011;4133;48.752;9.088;2024-03-22T07:58:35;4.17;;;2.80;;
8183;SDS011;4133;48.752;9.088;2024-03-22T08:01:01;3.87;;;2.80;;
8183;SDS011;4133;48.752;9.088;2024-03-22T08:03:27;6.80;;;3.00;;
8183;SDS011;4133;48.752;9.088;2024-03-22T08:05:53;4.10;;;2.77;;
8183;SDS011;4133;48.752;9.088;2024-03-22T08:08:19;3.90;;;2.57;;
8183;SDS011;4133;48.752;9.088;2024-03-22T08:10:45;3.03;;;2.73;;
8183;SDS011;4133;48.752;9.088;2024-03-22T08:13:11;2.80;;;2.23;;
8183;SDS011;4133;48.752;9.088;2024-03-22T08:15:37;5.50;;;3.45;;
8183;SDS011;4133;48.752;9.088;2024-03-22T08:18:03;2.90;;;2.60;;
8183;SDS011;4133;48.752;9.088;2024-03-22T08:20:30;3.43;;;2.37;;
8183;SDS011;4133;48.752;9.088;2024-03-22T08:22:58;4.47;;;3.10;;
8183;SDS011;4133;48.752;9.088;2024-03-22T08:25:24;3.97;;;2.60;;
8183;SDS011;4133;48.752;9.088;2024-03-22T08:27:50;4.00;;;2.80;;
8183;SDS011;4133;48.752;9.088;2024-03-22T08:30:20;2.40;;;2.17;;
8183;SDS011;4133;48.752;9.088;2024-03-22T08:32:46;3.35;;;2.60;;
8183;SDS011;4133;48.752;9.088;2024-03-22T08:35:12;5.88;;;2.42;;
8183;SDS011;4133;48.752;9.088;2024-03-22T08:37:38;4.18;;;2.85;;
8183;SDS011;4133;48.752;9.088;2024-03-22T08:40:04;3.72;;;2.50;;
8183;SDS011;4133;48.752;9.088;2024-03-22T08:42:30;3.95;;;2.70;;
8183;SDS011;4133;48.752;9.088;2024-03-22T08:44:57;4.75;;;2.40;;
8183;SDS011;4133;48.752;9.088;2024-03-22T08:47:23;4.07;;;2.58;;
8183;SDS011;4133;48.752;9.088;2024-03-22T08:49:49;5.50;;;2.60;;
8183;SDS011;4133;48.752;9.088;2024-03-22T08:52:15;3.27;;;2.63;;
8183;SDS011;4133;48.752;9.088;2024-03-22T08:54:41;3.47;;;2.50;;
8183;SDS011;4133;48.752;9.088;2024-03-22T08:57:07;3.95;;;2.70;;
8183;SDS011;4133;48.752;9.088;2024-03-22T08:59:33;5.55;;;2.72;;
8183;SDS011;4133;48.752;9.088;2024-03-22T09:02:00;2.58;;;2.38;;
8183;SDS011;4133;48.752;9.088;2024-03-22T09:04:26;4.13;;;3.00;;
8183;SDS011;4133;48.752;9.088;2024-03-22T09:06:52;4.10;;;2.80;;
8183;SDS011;4133;48.752;9.088;2024-03-22T09:09:18;3.47;;;2.70;;
8183;SDS011;4133;48.752;9.088;2024-03-22T09:11:44;8.85;;;2.97;;
8183;SDS011;4133;48.752;9.088;2024-03-22T09:14:10;3.08;;;2.78;;
8183;SDS011;4133;48.752;9.088;2024-03-22T09:16:36;4.53;;;2.63;;
8183;SDS011;4133;48.752;9.088;2024-03-22T09:19:02;4.18;;;2.75;;
8183;SDS011;4133;48.752;9.088;2024-03-22T09:21:28;3.13;;;2.25;;
8183;SDS011;4133;48.752;9.088;2024-03-22T09:23:56;5.35;;;2.20;;
8183;SDS011;4133;48.752;9.088;2024-03-22T09:26:22;3.25;;;1.80;;
8183;SDS011;4133;48.752;9.088;2024-03-22T09:28:48;2.38;;;2.17;;
8183;SDS011;4133;48.752;9.088;2024-03-22T09:31:17;4.75;;;2.20;;
8183;SDS011;4133;48.752;9.088;2024-03-22T09:33:43;2.97;;;2.35;;
8183;SDS011;4133;48.752;9.088;2024-03-22T09:36:09;2.50;;;2.30;;
8183;SDS011;4133;48.752;9.088;2024-03-22T09:38:35;4.22;;;1.85;;
8183;SDS011;4133;48.752;9.088;2024-03-22T09:41:01;3.40;;;2.33;;
8183;SDS011;4133;48.752;9.088;2024-03-22T09:43:27;2.38;;;1.98;;
8183;SDS011;4133;48.752;9.088;2024-03-22T09:45:54;2.72;;;2.30;;
8183;SDS011;4133;48.752;9.088;2024-03-22T09:48:20;4.32;;;2.38;;
8183;SDS011;4133;48.752;9.088;2024-03-22T09:50:46;2.17;;;1.85;;
8183;SDS011;4133;48.752;9.088;2024-03-22T09:53:19;4.57;;;2.03;;
8183;SDS011;4133;48.752;9.088;2024-03-22T09:55:46;1.95;;;1.73;;
8183;SDS011;4133;48.752;9.088;2024-03-22T09:58:13;3.20;;;2.05;;
8183;SDS011;4133;48.752;9.088;2024-03-22T10:00:39;3.05;;;2.22;;
8183;SDS011;4133;48.752;9.088;2024-03-22T10:03:05;2.60;;;1.85;;
8183;SDS011;4133;48.752;9.088;2024-03-22T10:05:31;6.50;;;2.22;;
8183;SDS011;4133;48.752;9.088;2024-03-22T10:07:57;3.63;;;2.35;;
8183;SDS011;4133;48.752;9.088;2024-03-22T10:10:23;3.20;;;2.20;;
8183;SDS011;4133;48.752;9.088;2024-03-22T10:12:49;2.70;;;2.42;;
8183;SDS011;4133;48.752;9.088;2024-03-22T10:15:18;3.22;;;2.25;;
8183;SDS011;4133;48.752;9.088;2024-03-22T10:17:44;3.00;;;2.28;;
8183;SDS011;4133;48.752;9.088;2024-03-22T10:20:12;4.00;;;2.08;;
8183;SDS011;4133;48.752;9.088;2024-03-22T10:22:42;3.35;;;1.95;;
8183;SDS011;4133;48.752;9.088;2024-03-22T10:25:08;2.67;;;1.95;;
8183;SDS011;4133;48.752;9.088;2024-03-22T10:27:37;4.28;;;2.30;;
8183;SDS011;4133;48.752;9.088;2024-03-22T10:30:05;2.83;;;2.30;;
8183;SDS011;4133;48.752;9.088;2024-03-22T10:32:33;3.42;;;2.40;;
8183;SDS011;4133;48.752;9.088;2024-03-22T10:35:01;3.78;;;2.53;;
8183;SDS011;4133;48.752;9.088;2024-03-22T10:37:30;3.38;;;2.28;;
8183;SDS011;4133;48.752;9.088;2024-03-22T10:39:57;2.15;;;1.85;;
8183;SDS011;4133;48.752;9.088;2024-03-22T10:42:24;2.20;;;1.75;;
8183;SDS011;4133;48.752;9.088;2024-03-22T10:44:50;2.78;;;1.92;;
8183;SDS011;4133;48.752;9.088;2024-03-22T10:47:16;4.68;;;1.77;;
8183;SDS011;4133;48.752;9.088;2024-03-22T10:49:43;3.15;;;1.55;;
8183;SDS011;4133;48.752;9.088;2024-03-22T10:52:11;1.88;;;1.50;;
8183;SDS011;4133;48.752;9.088;2024-03-22T10:54:39;2.22;;;1.60;;
8183;SDS011;4133;48.752;9.088;2024-03-22T10:57:06;2.17;;;1.80;;
8183;SDS011;4133;48.752;9.088;2024-03-22T10:59:33;4.32;;;1.80;;
8183;SDS011;4133;48.752;9.088;2024-03-22T11:02:02;2.63;;;1.50;;
8183;SDS011;4133;48.752;9.088;2024-03-22T11:04:29;2.25;;;2.05;;
8183;SDS011;4133;48.752;9.088;2024-03-22T11:06:56;2.00;;;1.63;;
8183;SDS011;4133;48.752;9.088;2024-03-22T11:09:25;1.65;;;1.55;;
8183;SDS011;4133;48.752;9.088;2024-03-22T11:11:52;4.75;;;2.20;;
8183;SDS011;4133;48.752;9.088;2024-03-22T11:14:18;3.38;;;1.33;;
8183;SDS011;4133;48.752;9.088;2024-03-22T11:16:49;2.45;;;1.70;;
8183;SDS011;4133;48.752;9.088;2024-03-22T11:19:16;2.35;;;1.50;;
8183;SDS011;4133;48.752;9.088;2024-03-22T11:21:42;1.45;;;1.30;;
8183;SDS011;4133;48.752;9.088;2024-03-22T11:24:08;1.67;;;1.40;;
8183;SDS011;4133;48.752;9.088;2024-03-22T11:26:35;3.05;;;1.50;;
8183;SDS011;4133;48.752;9.088;2024-03-22T11:29:01;1.20;;;1.02;;
8183;SDS011;4133;48.752;9.088;2024-03-22T11:31:27;1.40;;;1.30;;
8183;SDS011;4133;48.752;9.088;2024-03-22T11:33:53;1.33;;;1.10;;
8183;SDS011;4133;48.752;9.088;2024-03-22T11:36:19;1.70;;;1.10;;
8183;SDS011;4133;48.752;9.088;2024-03-22T11:38:45;1.30;;;1.17;;
8183;SDS011;4133;48.752;9.088;2024-03-22T11:41:14;1.30;;;1.20;;
8183;SDS011;4133;48.752;9.088;2024-03-22T11:43:42;2.25;;;1.15;;
8183;SDS011;4133;48.752;9.088;2024-03-22T11:46:09;2.83;;;1.50;;
8183;SDS011;4133;48.752;9.088;2024-03-22T11:48:38;1.23;;;1.13;;
8183;SDS011;4133;48.752;9.088;2024-03-22T11:51:04;1.23;;;1.05;;
8183;SDS011;4133;48.752;9.088;2024-03-22T11:53:31;1.88;;;1.30;;
8183;SDS011;4133;48.752;9.088;2024-03-22T11:55:57;2.20;;;1.20;;
8183;SDS011;4133;48.752;9.088;2024-03-22T11:58:26;1.17;;;1.15;;
8183;SDS011;4133;48.752;9.088;2024-03-22T12:00:52;1.48;;;1.10;;
8183;SDS011;4133;48.752;9.088;2024-03-22T12:03:18;3.08;;;1.10;;
8183;SDS011;4133;48.752;9.088;2024-03-22T12:05:44;1.73;;;1.30;;
8183;SDS011;4133;48.752;9.088;2024-03-22T12:08:10;2.40;;;1.30;;
8183;SDS011;4133;48.752;9.088;2024-03-22T12:10:36;2.13;;;1.17;;
8183;SDS011;4133;48.752;9.088;2024-03-22T12:13:02;1.00;;;1.00;;
8183;SDS011;4133;48.752;9.088;2024-03-22T12:15:28;1.80;;;1.10;;
8183;SDS011;4133;48.752;9.088;2024-03-22T12:17:54;1.63;;;1.15;;
8183;SDS011;4133;48.752;9.088;2024-03-22T12:20:23;1.40;;;1.27;;
8183;SDS011;4133;48.752;9.088;2024-03-22T12:22:50;1.20;;;1.10;;
8183;SDS011;4133;48.752;9.088;2024-03-22T12:25:16;1.77;;;1.13;;
8183;SDS011;4133;48.752;9.088;2024-03-22T12:27:42;1.08;;;0.98;;
8183;SDS011;4133;48.752;9.088;2024-03-22T12:30:09;1.48;;;1.38;;
8183;SDS011;4133;48.752;9.088;2024-03-22T12:32:35;4.80;;;1.30;;
8183;SDS011;4133;48.752;9.088;2024-03-22T12:35:01;1.45;;;1.15;;
8183;SDS011;4133;48.752;9.088;2024-03-22T12:37:27;1.23;;;0.90;;
8183;SDS011;4133;48.752;9.088;2024-03-22T12:39:53;3.72;;;1.08;;
8183;SDS011;4133;48.752;9.088;2024-03-22T12:42:19;1.45;;;1.35;;
8183;SDS011;4133;48.752;9.088;2024-03-22T12:44:45;1.30;;;1.10;;
8183;SDS011;4133;48.752;9.088;2024-03-22T12:47:11;1.63;;;1.13;;
8183;SDS011;4133;48.752;9.088;2024-03-22T12:49:37;1.15;;;1.10;;
8183;SDS011;4133;48.752;9.088;2024-03-22T12:52:03;1.10;;;1.00;;
8183;SDS011;4133;48.752;9.088;2024-03-22T12:54:29;1.40;;;1.30;;
8183;SDS011;4133;48.752;9.088;2024-03-22T12:56:55;1.60;;;1.17;;
8183;SDS011;4133;48.752;9.088;2024-03-22T12:59:21;1.10;;;1.00;;
8183;SDS011;4133;48.752;9.088;2024-03-22T13:01:47;0.90;;;0.90;;
8183;SDS011;4133;48.752;9.088;2024-03-22T13:04:14;2.92;;;1.48;;
8183;SDS011;4133;48.752;9.088;2024-03-22T13:06:40;1.42;;;1.10;;
8183;SDS011;4133;48.752;9.088;2024-03-22T13:09:06;1.17;;;1.15;;
8183;SDS011;4133;48.752;9.088;2024-03-22T13:11:34;4.20;;;1.17;;
8183;SDS011;4133;48.752;9.088;2024-03-22T13:14:00;1.60;;;1.50;;
8183;SDS011;4133;48.752;9.088;2024-03-22T13:16:26;2.25;;;1.70;;
8183;SDS011;4133;48.752;9.088;2024-03-22T13:18:52;3.22;;;1.70;;
8183;SDS011;4133;48.752;9.088;2024-03-22T13:21:18;2.08;;;1.60;;
8183;SDS011;4133;48.752;9.088;2024-03-22T13:23:45;1.83;;;1.27;;
8183;SDS011;4133;48.752;9.088;2024-03-22T13:26:11;3.35;;;1.50;;
8183;SDS011;4133;48.752;9.088;2024-03-22T13:28:37;2.17;;;1.60;;
8183;SDS011;4133;48.752;9.088;2024-03-22T13:31:03;2.47;;;1.65;;
8183;SDS011;4133;48.752;9.088;2024-03-22T13:33:31;1.70;;;1.50;;
8183;SDS011;4133;48.752;9.088;2024-03-22T13:35:58;1.48;;;1.38;;
8183;SDS011;4133;48.752;9.088;2024-03-22T13:38:24;1.67;;;1.58;;
8183;SDS011;4133;48.752;9.088;2024-03-22T13:40:56;2.45;;;1.50;;
8183;SDS011;4133;48.752;9.088;2024-03-22T13:43:22;1.35;;;1.25;;
8183;SDS011;4133;48.752;9.088;2024-03-22T13:45:52;4.00;;;1.40;;
8183;SDS011;4133;48.752;9.088;2024-03-22T13:48:22;2.45;;;1.80;;
8183;SDS011;4133;48.752;9.088;2024-03-22T13:50:49;1.40;;;1.20;;
8183;SDS011;4133;48.752;9.088;2024-03-22T13:53:15;2.45;;;1.30;;
8183;SDS011;4133;48.752;9.088;2024-03-22T13:55:42;1.50;;;1.40;;
8183;SDS011;4133;48.752;9.088;2024-03-22T13:58:08;1.63;;;1.40;;
8183;SDS011;4133;48.752;9.088;2024-03-22T14:00:34;1.80;;;1.70;;
8183;SDS011;4133;48.752;9.088;2024-03-22T14:03:02;1.90;;;1.40;;
8183;SDS011;4133;48.752;9.088;2024-03-22T14:05:28;3.22;;;2.45;;
8183;SDS011;4133;48.752;9.088;2024-03-22T14:07:54;4.70;;;1.52;;
8183;SDS011;4133;48.752;9.088;2024-03-22T14:10:20;1.52;;;1.42;;
8183;SDS011;4133;48.752;9.088;2024-03-22T14:12:47;2.10;;;1.20;;
8183;SDS011;4133;48.752;9.088;2024-03-22T14:15:13;2.70;;;1.30;;
8183;SDS011;4133;48.752;9.088;2024-03-22T14:17:39;1.83;;;1.40;;
8183;SDS011;4133;48.752;9.088;2024-03-22T14:20:05;1.65;;;1.17;;
8183;SDS011;4133;48.752;9.088;2024-03-22T14:22:37;2.13;;;1.35;;
8183;SDS011;4133;48.752;9.088;2024-03-22T14:25:04;2.00;;;1.40;;
8183;SDS011;4133;48.752;9.088;2024-03-22T14:27:31;3.47;;;1.65;;
8183;SDS011;4133;48.752;9.088;2024-03-22T14:29:57;4.55;;;1.90;;
8183;SDS011;4133;48.752;9.088;2024-03-22T14:32:23;2.13;;;1.77;;
8183;SDS011;4133;48.752;9.088;2024-03-22T14:34:49;1.40;;;1.30;;
8183;SDS011;4133;48.752;9.088;2024-03-22T14:37:15;2.20;;;1.95;;
8183;SDS011;4133;48.752;9.088;2024-03-22T14:39:42;2.70;;;1.40;;
8183;SDS011;4133;48.752;9.088;2024-03-22T14:42:08;4.32;;;1.73;;
8183;SDS011;4133;48.752;9.088;2024-03-22T14:44:34;5.65;;;2.72;;
8183;SDS011;4133;48.752;9.088;2024-03-22T14:47:00;1.40;;;1.15;;
8183;SDS011;4133;48.752;9.088;2024-03-22T14:49:26;1.30;;;1.20;;
8183;SDS011;4133;48.752;9.088;2024-03-22T14:51:52;0.82;;;0.82;;
8183;SDS011;4133;48.752;9.088;2024-03-22T14:54:18;1.10;;;1.10;;
8183;SDS011;4133;48.752;9.088;2024-03-22T14:56:44;1.73;;;0.90;;
8183;SDS011;4133;48.752;9.088;2024-03-22T14:59:10;1.05;;;1.00;;
8183;SDS011;4133;48.752;9.088;2024-03-22T15:01:35;1.02;;;0.90;;
8183;SDS011;4133;48.752;9.088;2024-03-22T15:04:01;1.25;;;1.00;;
8183;SDS011;4133;48.752;9.088;2024-03-22T15:06:27;1.02;;;1.00;;
8183;SDS011;4133;48.752;9.088;2024-03-22T15:08:54;2.13;;;1.17;;